sensor_id;sensor_type;location;lat;lon;timestamp;noise_LAeq;noise_LA_min;noise_LA_max;noise_LA01;noise_LA95
66274;Laerm;58450;52.150;4.466;2023-08-08T00:01:40;43.05;37.73;54.17;;
66274;Laerm;58450;52.150;4.466;2023-08-08T00:04:09;42.35;37.54;50.08;;
66274;Laerm;58450;52.150;4.466;2023-08-08T00:06:37;42.06;36.26;49.06;;
66274;Laerm;58450;52.150;4.466;2023-08-08T00:09:04;40.97;35.21;50.05;;
66274;Laerm;58450;52.150;4.466;2023-08-08T00:11:34;41.26;35.96;54.08;;
66274;Laerm;58450;52.150;4.466;2023-08-08T00:14:02;41.47;34.80;63.07;;
66274;Laerm;58450;52.150;4.466;2023-08-08T00:16:29;46.80;34.80;67.15;;
66274;Laerm;58450;52.150;4.466;2023-08-08T00:18:57;39.62;33.61;49.74;;
66274;Laerm;58450;52.150;4.466;2023-08-08T00:21:25;39.24;34.50;47.62;;
66274;Laerm;58450;52.150;4.466;2023-08-08T00:23:52;38.92;32.93;48.08;;
66274;Laerm;58450;52.150;4.466;2023-08-08T00:26:20;42.30;34.38;56.56;;
66274;Laerm;58450;52.150;4.466;2023-08-08T00:28:49;38.96;33.71;49.00;;
66274;Laerm;58450;52.150;4.466;2023-08-08T00:31:18;40.34;34.45;51.45;;
66274;Laerm;58450;52.150;4.466;2023-08-08T00:33:46;40.23;34.18;49.68;;
66274;Laerm;58450;52.150;4.466;2023-08-08T00:36:13;40.63;33.98;49.01;;
66274;Laerm;58450;52.150;4.466;2023-08-08T00:38:41;43.79;35.37;62.83;;
66274;Laerm;58450;52.150;4.466;2023-08-08T00:41:09;43.46;37.02;54.96;;
66274;Laerm;58450;52.150;4.466;2023-08-08T00:43:36;50.46;37.68;67.99;;
66274;Laerm;58450;52.150;4.466;2023-08-08T00:46:05;42.18;35.34;47.73;;
66274;Laerm;58450;52.150;4.466;2023-08-08T00:48:33;42.34;33.88;60.10;;
66274;Laerm;58450;52.150;4.466;2023-08-08T00:51:01;41.44;33.74;62.54;;
66274;Laerm;58450;52.150;4.466;2023-08-08T00:53:30;52.90;33.94;63.65;;
66274;Laerm;58450;52.150;4.466;2023-08-08T00:55:59;50.08;34.57;66.83;;
66274;Laerm;58450;52.150;4.466;2023-08-08T00:58:27;39.84;34.56;48.48;;
66274;Laerm;58450;52.150;4.466;2023-08-08T01:00:55;39.82;34.18;48.77;;
66274;Laerm;58450;52.150;4.466;2023-08-08T01:03:27;42.25;35.36;48.02;;
66274;Laerm;58450;52.150;4.466;2023-08-08T01:06:03;42.82;36.48;49.43;;
66274;Laerm;58450;52.150;4.466;2023-08-08T01:08:39;42.98;36.81;52.84;;
66274;Laerm;58450;52.150;4.466;2023-08-08T01:11:10;42.37;36.30;54.56;;
66274;Laerm;58450;52.150;4.466;2023-08-08T01:13:39;41.36;35.56;48.07;;
66274;Laerm;58450;52.150;4.466;2023-08-08T01:16:07;39.47;33.06;48.33;;
66274;Laerm;58450;52.150;4.466;2023-08-08T01:18:38;39.66;34.22;49.06;;
66274;Laerm;58450;52.150;4.466;2023-08-08T01:21:09;42.45;33.76;54.93;;
66274;Laerm;58450;52.150;4.466;2023-08-08T01:23:47;45.66;34.72;65.15;;
66274;Laerm;58450;52.150;4.466;2023-08-08T01:26:21;40.69;35.92;52.83;;
66274;Laerm;58450;52.150;4.466;2023-08-08T01:28:53;40.84;35.74;48.84;;
66274;Laerm;58450;52.150;4.466;2023-08-08T01:31:21;49.89;37.38;67.34;;
66274;Laerm;58450;52.150;4.466;2023-08-08T01:33:49;40.63;34.40;50.15;;
66274;Laerm;58450;52.150;4.466;2023-08-08T01:36:24;40.38;35.22;49.31;;
66274;Laerm;58450;52.150;4.466;2023-08-08T01:38:57;40.94;35.72;48.53;;
66274;Laerm;58450;52.150;4.466;2023-08-08T01:41:33;42.73;34.21;61.90;;
66274;Laerm;58450;52.150;4.466;2023-08-08T01:44:02;51.22;35.43;70.13;;
66274;Laerm;58450;52.150;4.466;2023-08-08T01:46:31;42.24;36.27;51.30;;
66274;Laerm;58450;52.150;4.466;2023-08-08T01:48:59;42.00;34.94;60.87;;
66274;Laerm;58450;52.150;4.466;2023-08-08T01:51:27;47.15;38.59;60.53;;
66274;Laerm;58450;52.150;4.466;2023-08-08T01:53:55;44.49;37.45;50.31;;
66274;Laerm;58450;52.150;4.466;2023-08-08T01:56:22;44.35;37.91;52.09;;
66274;Laerm;58450;52.150;4.466;2023-08-08T01:58:51;42.84;36.63;64.05;;
66274;Laerm;58450;52.150;4.466;2023-08-08T02:01:19;47.41;36.92;65.70;;
66274;Laerm;58450;52.150;4.466;2023-08-08T02:03:46;42.67;36.25;56.17;;
66274;Laerm;58450;52.150;4.466;2023-08-08T02:06:14;47.00;38.55;66.14;;
66274;Laerm;58450;52.150;4.466;2023-08-08T02:08:41;42.63;37.41;52.32;;
66274;Laerm;58450;52.150;4.466;2023-08-08T02:11:09;42.76;37.00;56.39;;
66274;Laerm;58450;52.150;4.466;2023-08-08T02:13:37;42.64;36.60;55.66;;
66274;Laerm;58450;52.150;4.466;2023-08-08T02:16:06;41.14;34.18;51.55;;
66274;Laerm;58450;52.150;4.466;2023-08-08T02:18:33;42.16;36.43;49.00;;
66274;Laerm;58450;52.150;4.466;2023-08-08T02:21:02;42.42;36.79;53.32;;
66274;Laerm;58450;52.150;4.466;2023-08-08T02:23:30;42.96;36.48;53.25;;
66274;Laerm;58450;52.150;4.466;2023-08-08T02:25:57;39.85;33.65;48.36;;
66274;Laerm;58450;52.150;4.466;2023-08-08T02:28:25;51.74;33.92;65.91;;
66274;Laerm;58450;52.150;4.466;2023-08-08T02:30:53;41.00;34.21;53.89;;
66274;Laerm;58450;52.150;4.466;2023-08-08T02:33:22;42.26;36.68;53.75;;
66274;Laerm;58450;52.150;4.466;2023-08-08T02:35:49;44.46;37.02;62.30;;
66274;Laerm;58450;52.150;4.466;2023-08-08T02:38:17;42.10;36.11;52.19;;
66274;Laerm;58450;52.150;4.466;2023-08-08T02:40:44;48.97;36.07;65.90;;
66274;Laerm;58450;52.150;4.466;2023-08-08T02:43:12;43.02;36.43;59.09;;
66274;Laerm;58450;52.150;4.466;2023-08-08T02:45:40;42.64;37.12;52.41;;
66274;Laerm;58450;52.150;4.466;2023-08-08T02:48:07;42.70;35.42;58.52;;
66274;Laerm;58450;52.150;4.466;2023-08-08T02:50:36;41.19;34.58;55.93;;
66274;Laerm;58450;52.150;4.466;2023-08-08T02:53:04;40.34;33.97;48.73;;
66274;Laerm;58450;52.150;4.466;2023-08-08T02:55:31;40.35;33.75;53.15;;
66274;Laerm;58450;52.150;4.466;2023-08-08T02:57:59;40.01;34.94;48.48;;
66274;Laerm;58450;52.150;4.466;2023-08-08T03:00:27;45.10;33.33;70.47;;
66274;Laerm;58450;52.150;4.466;2023-08-08T03:02:54;40.04;33.95;50.58;;
66274;Laerm;58450;52.150;4.466;2023-08-08T03:05:22;40.01;33.99;48.69;;
66274;Laerm;58450;52.150;4.466;2023-08-08T03:07:51;42.75;36.06;54.97;;
66274;Laerm;58450;52.150;4.466;2023-08-08T03:10:18;44.15;34.37;61.81;;
66274;Laerm;58450;52.150;4.466;2023-08-08T03:12:46;42.74;37.58;55.61;;
66274;Laerm;58450;52.150;4.466;2023-08-08T03:15:14;42.43;36.45;50.60;;
66274;Laerm;58450;52.150;4.466;2023-08-08T03:17:42;42.50;34.72;51.21;;
66274;Laerm;58450;52.150;4.466;2023-08-08T03:20:11;41.40;35.88;52.70;;
66274;Laerm;58450;52.150;4.466;2023-08-08T03:22:38;41.71;35.59;48.72;;
66274;Laerm;58450;52.150;4.466;2023-08-08T03:25:08;43.75;38.10;53.73;;
66274;Laerm;58450;52.150;4.466;2023-08-08T03:27:36;42.66;36.17;53.73;;
66274;Laerm;58450;52.150;4.466;2023-08-08T03:30:05;43.72;36.36;54.74;;
66274;Laerm;58450;52.150;4.466;2023-08-08T03:32:33;48.83;37.63;65.36;;
66274;Laerm;58450;52.150;4.466;2023-08-08T03:35:00;42.82;36.34;55.04;;
66274;Laerm;58450;52.150;4.466;2023-08-08T03:37:28;43.99;38.13;60.31;;
66274;Laerm;58450;52.150;4.466;2023-08-08T03:39:56;43.27;36.97;60.61;;
66274;Laerm;58450;52.150;4.466;2023-08-08T03:42:25;45.79;38.83;56.39;;
66274;Laerm;58450;52.150;4.466;2023-08-08T03:44:52;51.95;38.07;66.87;;
66274;Laerm;58450;52.150;4.466;2023-08-08T03:47:20;48.75;39.73;62.24;;
66274;Laerm;58450;52.150;4.466;2023-08-08T03:49:48;52.22;38.69;70.89;;
66274;Laerm;58450;52.150;4.466;2023-08-08T03:52:16;49.36;42.65;63.61;;
66274;Laerm;58450;52.150;4.466;2023-08-08T03:54:43;48.62;39.84;69.43;;
66274;Laerm;58450;52.150;4.466;2023-08-08T03:57:11;50.77;40.22;64.55;;
66274;Laerm;58450;52.150;4.466;2023-08-08T03:59:40;53.38;39.98;69.85;;
66274;Laerm;58450;52.150;4.466;2023-08-08T04:02:07;54.97;39.80;69.09;;
66274;Laerm;58450;52.150;4.466;2023-08-08T04:04:35;52.53;38.95;68.90;;
66274;Laerm;58450;52.150;4.466;2023-08-08T04:07:03;53.47;39.50;69.55;;
66274;Laerm;58450;52.150;4.466;2023-08-08T04:09:31;52.60;41.04;70.39;;
66274;Laerm;58450;52.150;4.466;2023-08-08T04:11:59;52.17;40.98;68.09;;
66274;Laerm;58450;52.150;4.466;2023-08-08T04:14:26;57.82;39.98;71.34;;
66274;Laerm;58450;52.150;4.466;2023-08-08T04:16:55;53.40;40.63;68.64;;
66274;Laerm;58450;52.150;4.466;2023-08-08T04:19:23;53.53;42.33;69.17;;
66274;Laerm;58450;52.150;4.466;2023-08-08T04:21:51;50.89;39.94;65.12;;
66274;Laerm;58450;52.150;4.466;2023-08-08T04:24:18;53.80;39.36;68.59;;
66274;Laerm;58450;52.150;4.466;2023-08-08T04:26:46;51.34;38.93;68.17;;
66274;Laerm;58450;52.150;4.466;2023-08-08T04:29:13;48.27;39.46;65.09;;
66274;Laerm;58450;52.150;4.466;2023-08-08T04:31:41;50.31;38.63;67.85;;
66274;Laerm;58450;52.150;4.466;2023-08-08T04:34:10;47.03;40.07;64.57;;
66274;Laerm;58450;52.150;4.466;2023-08-08T04:36:38;51.33;40.87;67.46;;
66274;Laerm;58450;52.150;4.466;2023-08-08T04:39:05;54.37;39.81;67.85;;
66274;Laerm;58450;52.150;4.466;2023-08-08T04:41:33;46.37;38.71;58.48;;
66274;Laerm;58450;52.150;4.466;2023-08-08T04:44:00;54.47;43.19;70.23;;
66274;Laerm;58450;52.150;4.466;2023-08-08T04:46:28;47.66;41.79;60.82;;
66274;Laerm;58450;52.150;4.466;2023-08-08T04:48:56;56.01;42.80;70.76;;
66274;Laerm;58450;52.150;4.466;2023-08-08T04:51:25;49.71;42.62;62.91;;
66274;Laerm;58450;52.150;4.466;2023-08-08T04:53:53;51.10;42.63;64.74;;
66274;Laerm;58450;52.150;4.466;2023-08-08T04:56:20;47.96;40.02;63.94;;
66274;Laerm;58450;52.150;4.466;2023-08-08T04:58:48;48.82;42.43;64.59;;
66274;Laerm;58450;52.150;4.466;2023-08-08T05:01:16;48.32;40.48;61.37;;
66274;Laerm;58450;52.150;4.466;2023-08-08T05:03:47;51.56;40.51;65.71;;
66274;Laerm;58450;52.150;4.466;2023-08-08T05:06:16;46.86;41.44;60.18;;
66274;Laerm;58450;52.150;4.466;2023-08-08T05:08:45;52.28;41.76;65.09;;
66274;Laerm;58450;52.150;4.466;2023-08-08T05:11:12;47.13;41.86;57.02;;
66274;Laerm;58450;52.150;4.466;2023-08-08T05:13:40;53.02;40.98;67.08;;
66274;Laerm;58450;52.150;4.466;2023-08-08T05:16:09;47.64;43.04;55.92;;
66274;Laerm;58450;52.150;4.466;2023-08-08T05:18:36;55.35;44.35;69.57;;
66274;Laerm;58450;52.150;4.466;2023-08-08T05:21:04;49.41;42.03;61.02;;
66274;Laerm;58450;52.150;4.466;2023-08-08T05:23:31;55.31;45.27;70.74;;
66274;Laerm;58450;52.150;4.466;2023-08-08T05:26:00;50.43;42.30;66.59;;
66274;Laerm;58450;52.150;4.466;2023-08-08T05:28:28;49.57;42.87;61.82;;
66274;Laerm;58450;52.150;4.466;2023-08-08T05:30:56;52.62;42.96;68.24;;
66274;Laerm;58450;52.150;4.466;2023-08-08T05:33:23;53.90;43.39;65.20;;
66274;Laerm;58450;52.150;4.466;2023-08-08T05:35:51;49.03;43.12;64.72;;
66274;Laerm;58450;52.150;4.466;2023-08-08T05:38:18;53.69;42.88;67.25;;
66274;Laerm;58450;52.150;4.466;2023-08-08T05:40:46;52.84;44.36;61.78;;
66274;Laerm;58450;52.150;4.466;2023-08-08T05:43:15;53.36;43.68;70.84;;
66274;Laerm;58450;52.150;4.466;2023-08-08T05:45:44;48.15;43.03;55.74;;
66274;Laerm;58450;52.150;4.466;2023-08-08T05:48:12;57.89;42.53;71.36;;
66274;Laerm;58450;52.150;4.466;2023-08-08T05:50:41;48.11;43.72;63.72;;
66274;Laerm;58450;52.150;4.466;2023-08-08T05:53:08;49.74;42.55;61.22;;
66274;Laerm;58450;52.150;4.466;2023-08-08T05:55:36;52.25;46.62;72.86;;
66274;Laerm;58450;52.150;4.466;2023-08-08T05:58:04;54.19;44.53;68.13;;
66274;Laerm;58450;52.150;4.466;2023-08-08T06:00:32;52.54;45.07;67.18;;
66274;Laerm;58450;52.150;4.466;2023-08-08T06:03:01;54.76;44.15;68.11;;
66274;Laerm;58450;52.150;4.466;2023-08-08T06:05:29;54.87;43.47;71.67;;
66274;Laerm;58450;52.150;4.466;2023-08-08T06:07:56;52.53;45.16;62.96;;
66274;Laerm;58450;52.150;4.466;2023-08-08T06:10:24;51.43;44.71;69.11;;
66274;Laerm;58450;52.150;4.466;2023-08-08T06:12:52;54.01;43.94;65.53;;
66274;Laerm;58450;52.150;4.466;2023-08-08T06:15:20;54.28;45.49;68.97;;
66274;Laerm;58450;52.150;4.466;2023-08-08T06:17:49;53.50;44.61;65.45;;
66274;Laerm;58450;52.150;4.466;2023-08-08T06:20:16;54.67;46.09;71.06;;
66274;Laerm;58450;52.150;4.466;2023-08-08T06:22:44;51.40;43.35;66.28;;
66274;Laerm;58450;52.150;4.466;2023-08-08T06:25:12;54.04;44.57;69.62;;
66274;Laerm;58450;52.150;4.466;2023-08-08T06:27:40;52.26;42.66;66.41;;
66274;Laerm;58450;52.150;4.466;2023-08-08T06:30:08;49.60;43.57;69.49;;
66274;Laerm;58450;52.150;4.466;2023-08-08T06:32:36;53.75;44.33;68.19;;
66274;Laerm;58450;52.150;4.466;2023-08-08T06:35:06;50.95;43.38;69.07;;
66274;Laerm;58450;52.150;4.466;2023-08-08T06:37:33;54.08;44.07;67.96;;
66274;Laerm;58450;52.150;4.466;2023-08-08T06:40:01;53.88;46.90;65.70;;
66274;Laerm;58450;52.150;4.466;2023-08-08T06:42:29;52.96;42.30;70.66;;
66274;Laerm;58450;52.150;4.466;2023-08-08T06:44:56;53.59;44.49;72.52;;
66274;Laerm;58450;52.150;4.466;2023-08-08T06:47:24;55.32;42.89;70.02;;
66274;Laerm;58450;52.150;4.466;2023-08-08T06:49:52;52.06;44.03;64.06;;
66274;Laerm;58450;52.150;4.466;2023-08-08T06:52:22;49.82;44.25;68.72;;
66274;Laerm;58450;52.150;4.466;2023-08-08T06:54:49;52.05;44.03;70.47;;
66274;Laerm;58450;52.150;4.466;2023-08-08T06:57:17;55.16;45.46;70.55;;
66274;Laerm;58450;52.150;4.466;2023-08-08T06:59:44;51.71;44.43;65.19;;
66274;Laerm;58450;52.150;4.466;2023-08-08T07:02:16;52.88;43.43;67.07;;
66274;Laerm;58450;52.150;4.466;2023-08-08T07:04:44;53.64;46.36;72.46;;
66274;Laerm;58450;52.150;4.466;2023-08-08T07:07:12;51.18;44.28;61.72;;
66274;Laerm;58450;52.150;4.466;2023-08-08T07:09:41;54.26;46.07;70.45;;
66274;Laerm;58450;52.150;4.466;2023-08-08T07:12:09;50.08;44.93;61.61;;
66274;Laerm;58450;52.150;4.466;2023-08-08T07:14:36;55.82;46.94;71.06;;
66274;Laerm;58450;52.150;4.466;2023-08-08T07:17:04;57.50;48.18;74.70;;
66274;Laerm;58450;52.150;4.466;2023-08-08T07:19:32;55.52;48.30;72.37;;
66274;Laerm;58450;52.150;4.466;2023-08-08T07:22:00;53.26;45.42;65.76;;
66274;Laerm;58450;52.150;4.466;2023-08-08T07:24:27;53.16;45.07;67.67;;
66274;Laerm;58450;52.150;4.466;2023-08-08T07:26:58;51.77;46.34;65.45;;
66274;Laerm;58450;52.150;4.466;2023-08-08T07:29:26;52.87;42.82;71.00;;
66274;Laerm;58450;52.150;4.466;2023-08-08T07:31:54;51.71;43.73;66.24;;
66274;Laerm;58450;52.150;4.466;2023-08-08T07:34:22;53.13;45.18;66.10;;
66274;Laerm;58450;52.150;4.466;2023-08-08T07:36:51;53.58;47.72;68.65;;
66274;Laerm;58450;52.150;4.466;2023-08-08T07:39:18;56.41;49.33;73.81;;
66274;Laerm;58450;52.150;4.466;2023-08-08T07:41:46;53.59;46.22;71.41;;
66274;Laerm;58450;52.150;4.466;2023-08-08T07:44:15;57.36;47.06;72.90;;
66274;Laerm;58450;52.150;4.466;2023-08-08T07:46:43;58.05;47.33;74.25;;
66274;Laerm;58450;52.150;4.466;2023-08-08T07:49:11;56.60;47.39;68.65;;
66274;Laerm;58450;52.150;4.466;2023-08-08T07:51:38;53.92;47.65;73.30;;
66274;Laerm;58450;52.150;4.466;2023-08-08T07:54:06;55.01;47.20;71.24;;
66274;Laerm;58450;52.150;4.466;2023-08-08T07:56:35;54.52;47.25;71.29;;
66274;Laerm;58450;52.150;4.466;2023-08-08T07:59:03;54.73;47.13;64.45;;
66274;Laerm;58450;52.150;4.466;2023-08-08T08:01:33;56.43;48.87;72.80;;
66274;Laerm;58450;52.150;4.466;2023-08-08T08:04:00;53.46;45.71;70.71;;
66274;Laerm;58450;52.150;4.466;2023-08-08T08:06:29;54.04;46.59;68.81;;
66274;Laerm;58450;52.150;4.466;2023-08-08T08:08:56;56.01;46.53;75.46;;
66274;Laerm;58450;52.150;4.466;2023-08-08T08:11:24;55.26;46.54;74.07;;
66274;Laerm;58450;52.150;4.466;2023-08-08T08:13:51;53.02;45.94;71.70;;
66274;Laerm;58450;52.150;4.466;2023-08-08T08:16:19;54.69;46.23;71.80;;
66274;Laerm;58450;52.150;4.466;2023-08-08T08:18:48;57.86;48.70;78.13;;
66274;Laerm;58450;52.150;4.466;2023-08-08T08:21:16;53.26;46.40;64.43;;
66274;Laerm;58450;52.150;4.466;2023-08-08T08:23:44;54.27;44.15;77.25;;
66274;Laerm;58450;52.150;4.466;2023-08-08T08:26:13;56.57;46.38;73.48;;
66274;Laerm;58450;52.150;4.466;2023-08-08T08:28:40;55.58;48.83;64.05;;
66274;Laerm;58450;52.150;4.466;2023-08-08T08:31:08;55.85;48.32;70.42;;
66274;Laerm;58450;52.150;4.466;2023-08-08T08:33:36;52.47;45.13;73.27;;
66274;Laerm;58450;52.150;4.466;2023-08-08T08:36:06;57.21;46.01;80.54;;
66274;Laerm;58450;52.150;4.466;2023-08-08T08:38:34;58.60;49.48;76.36;;
66274;Laerm;58450;52.150;4.466;2023-08-08T08:41:03;58.96;48.07;81.85;;
66274;Laerm;58450;52.150;4.466;2023-08-08T08:43:30;58.09;47.58;73.49;;
66274;Laerm;58450;52.150;4.466;2023-08-08T08:46:00;58.59;50.75;74.49;;
66274;Laerm;58450;52.150;4.466;2023-08-08T08:48:30;59.45;48.00;76.83;;
66274;Laerm;58450;52.150;4.466;2023-08-08T08:50:58;54.24;46.67;73.61;;
66274;Laerm;58450;52.150;4.466;2023-08-08T08:53:27;52.69;46.02;64.51;;
66274;Laerm;58450;52.150;4.466;2023-08-08T08:55:56;58.54;48.26;76.23;;
66274;Laerm;58450;52.150;4.466;2023-08-08T08:58:25;52.32;47.02;58.33;;
66274;Laerm;58450;52.150;4.466;2023-08-08T09:00:55;56.71;46.61;75.94;;
66274;Laerm;58450;52.150;4.466;2023-08-08T09:03:24;55.56;49.21;69.84;;
66274;Laerm;58450;52.150;4.466;2023-08-08T09:05:53;52.33;44.47;63.74;;
66274;Laerm;58450;52.150;4.466;2023-08-08T09:08:22;59.80;48.63;77.49;;
66274;Laerm;58450;52.150;4.466;2023-08-08T09:10:51;57.65;49.01;71.56;;
66274;Laerm;58450;52.150;4.466;2023-08-08T09:13:18;59.52;49.50;74.38;;
66274;Laerm;58450;52.150;4.466;2023-08-08T09:15:49;60.25;49.61;83.73;;
66274;Laerm;58450;52.150;4.466;2023-08-08T09:18:16;61.72;48.79;85.25;;
66274;Laerm;58450;52.150;4.466;2023-08-08T09:20:47;59.37;50.34;80.54;;
66274;Laerm;58450;52.150;4.466;2023-08-08T09:23:15;58.60;47.68;77.02;;
66274;Laerm;58450;52.150;4.466;2023-08-08T09:25:43;60.54;49.94;79.42;;
66274;Laerm;58450;52.150;4.466;2023-08-08T09:28:12;59.12;52.14;70.62;;
66274;Laerm;58450;52.150;4.466;2023-08-08T09:30:41;61.34;51.06;83.13;;
66274;Laerm;58450;52.150;4.466;2023-08-08T09:33:09;59.36;51.70;77.30;;
66274;Laerm;58450;52.150;4.466;2023-08-08T09:35:38;59.54;50.54;77.77;;
66274;Laerm;58450;52.150;4.466;2023-08-08T09:38:06;55.97;47.17;74.06;;
66274;Laerm;58450;52.150;4.466;2023-08-08T09:40:34;54.97;47.95;65.26;;
66274;Laerm;58450;52.150;4.466;2023-08-08T09:43:02;62.83;51.24;83.09;;
66274;Laerm;58450;52.150;4.466;2023-08-08T09:45:37;58.53;50.59;73.86;;
66274;Laerm;58450;52.150;4.466;2023-08-08T09:48:06;60.89;51.02;81.44;;
66274;Laerm;58450;52.150;4.466;2023-08-08T09:50:34;59.63;49.68;76.49;;
66274;Laerm;58450;52.150;4.466;2023-08-08T09:53:03;62.77;49.88;83.90;;
66274;Laerm;58450;52.150;4.466;2023-08-08T09:55:33;60.55;49.66;80.90;;
66274;Laerm;58450;52.150;4.466;2023-08-08T09:58:02;58.53;48.09;77.07;;
66274;Laerm;58450;52.150;4.466;2023-08-08T10:00:31;57.06;48.55;74.06;;
66274;Laerm;58450;52.150;4.466;2023-08-08T10:03:02;63.37;51.26;85.03;;
66274;Laerm;58450;52.150;4.466;2023-08-08T10:05:30;57.91;48.90;72.55;;
66274;Laerm;58450;52.150;4.466;2023-08-08T10:07:58;59.75;48.84;81.29;;
66274;Laerm;58450;52.150;4.466;2023-08-08T10:10:26;56.11;48.24;70.13;;
66274;Laerm;58450;52.150;4.466;2023-08-08T10:12:54;57.37;47.13;75.04;;
66274;Laerm;58450;52.150;4.466;2023-08-08T10:15:26;55.76;48.87;70.37;;
66274;Laerm;58450;52.150;4.466;2023-08-08T10:17:55;60.26;49.69;74.33;;
66274;Laerm;58450;52.150;4.466;2023-08-08T10:20:25;56.40;49.77;73.27;;
66274;Laerm;58450;52.150;4.466;2023-08-08T10:22:54;59.42;49.50;74.57;;
66274;Laerm;58450;52.150;4.466;2023-08-08T10:25:26;57.56;47.04;74.37;;
66274;Laerm;58450;52.150;4.466;2023-08-08T10:28:05;55.02;46.70;72.92;;
66274;Laerm;58450;52.150;4.466;2023-08-08T10:30:44;59.78;50.63;77.75;;
66274;Laerm;58450;52.150;4.466;2023-08-08T10:33:19;58.79;49.36;76.73;;
66274;Laerm;58450;52.150;4.466;2023-08-08T10:36:02;53.56;48.47;70.30;;
66274;Laerm;58450;52.150;4.466;2023-08-08T10:38:41;57.97;50.34;80.95;;
66274;Laerm;58450;52.150;4.466;2023-08-08T10:41:11;57.39;49.49;75.74;;
66274;Laerm;58450;52.150;4.466;2023-08-08T10:43:47;58.98;46.75;75.24;;
66274;Laerm;58450;52.150;4.466;2023-08-08T10:46:23;52.82;45.55;67.11;;
66274;Laerm;58450;52.150;4.466;2023-08-08T10:48:53;56.61;47.57;70.05;;
66274;Laerm;58450;52.150;4.466;2023-08-08T10:51:22;58.61;48.41;74.96;;
66274;Laerm;58450;52.150;4.466;2023-08-08T10:53:51;60.33;50.74;82.94;;
66274;Laerm;58450;52.150;4.466;2023-08-08T10:56:19;61.79;49.24;79.51;;
66274;Laerm;58450;52.150;4.466;2023-08-08T10:58:48;57.00;51.18;69.29;;
66274;Laerm;58450;52.150;4.466;2023-08-08T11:01:16;61.66;51.30;83.59;;
66274;Laerm;58450;52.150;4.466;2023-08-08T11:03:46;57.53;49.12;72.33;;
66274;Laerm;58450;52.150;4.466;2023-08-08T11:06:16;58.11;48.21;75.08;;
66274;Laerm;58450;52.150;4.466;2023-08-08T11:08:46;62.25;52.14;74.25;;
66274;Laerm;58450;52.150;4.466;2023-08-08T11:11:13;54.82;48.33;66.24;;
66274;Laerm;58450;52.150;4.466;2023-08-08T11:13:41;57.66;46.35;73.37;;
66274;Laerm;58450;52.150;4.466;2023-08-08T11:16:09;56.60;46.31;69.68;;
66274;Laerm;58450;52.150;4.466;2023-08-08T11:18:36;59.38;49.07;71.17;;
66274;Laerm;58450;52.150;4.466;2023-08-08T11:21:10;60.37;48.28;79.42;;
66274;Laerm;58450;52.150;4.466;2023-08-08T11:23:37;57.93;50.05;72.50;;
66274;Laerm;58450;52.150;4.466;2023-08-08T11:26:06;61.14;50.72;83.12;;
66274;Laerm;58450;52.150;4.466;2023-08-08T11:28:34;58.97;50.49;74.04;;
66274;Laerm;58450;52.150;4.466;2023-08-08T11:31:04;62.93;46.47;89.35;;
66274;Laerm;58450;52.150;4.466;2023-08-08T11:33:32;55.29;48.89;75.48;;
66274;Laerm;58450;52.150;4.466;2023-08-08T11:35:59;60.42;49.79;76.10;;
66274;Laerm;58450;52.150;4.466;2023-08-08T11:38:27;61.74;52.41;78.20;;
66274;Laerm;58450;52.150;4.466;2023-08-08T11:40:56;60.13;51.48;77.04;;
66274;Laerm;58450;52.150;4.466;2023-08-08T11:43:26;62.41;51.55;78.69;;
66274;Laerm;58450;52.150;4.466;2023-08-08T11:45:54;63.81;51.26;90.23;;
66274;Laerm;58450;52.150;4.466;2023-08-08T11:48:21;59.17;49.43;74.13;;
66274;Laerm;58450;52.150;4.466;2023-08-08T11:50:49;55.35;46.93;72.12;;
66274;Laerm;58450;52.150;4.466;2023-08-08T11:53:19;57.26;46.68;74.75;;
66274;Laerm;58450;52.150;4.466;2023-08-08T11:55:47;58.76;50.33;76.90;;
66274;Laerm;58450;52.150;4.466;2023-08-08T11:58:15;58.94;48.65;77.45;;
66274;Laerm;58450;52.150;4.466;2023-08-08T12:00:44;55.09;47.57;68.02;;
66274;Laerm;58450;52.150;4.466;2023-08-08T12:03:13;59.70;49.35;74.65;;
66274;Laerm;58450;52.150;4.466;2023-08-08T12:05:47;55.99;48.47;70.02;;
66274;Laerm;58450;52.150;4.466;2023-08-08T12:08:18;56.52;48.23;70.78;;
66274;Laerm;58450;52.150;4.466;2023-08-08T12:10:48;59.12;50.56;79.18;;
66274;Laerm;58450;52.150;4.466;2023-08-08T12:13:20;59.92;49.75;76.44;;
66274;Laerm;58450;52.150;4.466;2023-08-08T12:15:49;56.75;49.89;74.71;;
66274;Laerm;58450;52.150;4.466;2023-08-08T12:18:18;55.24;47.00;69.16;;
66274;Laerm;58450;52.150;4.466;2023-08-08T12:20:46;60.72;49.37;75.34;;
66274;Laerm;58450;52.150;4.466;2023-08-08T12:23:14;55.80;48.21;67.37;;
66274;Laerm;58450;52.150;4.466;2023-08-08T12:25:42;61.00;48.10;83.86;;
66274;Laerm;58450;52.150;4.466;2023-08-08T12:28:10;56.54;47.84;71.64;;
66274;Laerm;58450;52.150;4.466;2023-08-08T12:30:38;56.70;48.19;74.61;;
66274;Laerm;58450;52.150;4.466;2023-08-08T12:33:07;53.98;47.98;66.63;;
66274;Laerm;58450;52.150;4.466;2023-08-08T12:35:34;59.66;49.39;73.42;;
66274;Laerm;58450;52.150;4.466;2023-08-08T12:38:02;61.94;49.93;83.78;;
66274;Laerm;58450;52.150;4.466;2023-08-08T12:40:30;60.99;50.99;85.11;;
66274;Laerm;58450;52.150;4.466;2023-08-08T12:42:57;59.00;49.32;77.77;;
66274;Laerm;58450;52.150;4.466;2023-08-08T12:45:25;56.99;48.11;75.54;;
66274;Laerm;58450;52.150;4.466;2023-08-08T12:47:53;57.09;48.93;75.74;;
66274;Laerm;58450;52.150;4.466;2023-08-08T12:50:22;57.86;49.36;81.10;;
66274;Laerm;58450;52.150;4.466;2023-08-08T12:52:50;57.96;49.70;77.03;;
66274;Laerm;58450;52.150;4.466;2023-08-08T12:55:17;59.12;51.49;75.36;;
66274;Laerm;58450;52.150;4.466;2023-08-08T12:57:45;59.24;48.80;77.20;;
66274;Laerm;58450;52.150;4.466;2023-08-08T13:00:15;60.85;49.61;80.24;;
66274;Laerm;58450;52.150;4.466;2023-08-08T13:02:43;59.13;48.84;76.02;;
66274;Laerm;58450;52.150;4.466;2023-08-08T13:05:11;53.90;46.87;70.01;;
66274;Laerm;58450;52.150;4.466;2023-08-08T13:07:40;60.70;50.62;76.83;;
66274;Laerm;58450;52.150;4.466;2023-08-08T13:10:08;55.65;49.24;65.29;;
66274;Laerm;58450;52.150;4.466;2023-08-08T13:12:36;58.50;49.38;74.38;;
66274;Laerm;58450;52.150;4.466;2023-08-08T13:15:04;57.00;48.11;70.24;;
66274;Laerm;58450;52.150;4.466;2023-08-08T13:17:33;55.98;46.50;68.23;;
66274;Laerm;58450;52.150;4.466;2023-08-08T13:20:01;57.42;49.47;72.02;;
66274;Laerm;58450;52.150;4.466;2023-08-08T13:22:28;60.47;49.68;75.39;;
66274;Laerm;58450;52.150;4.466;2023-08-08T13:24:57;59.04;52.27;74.58;;
66274;Laerm;58450;52.150;4.466;2023-08-08T13:27:25;60.29;49.77;79.63;;
66274;Laerm;58450;52.150;4.466;2023-08-08T13:29:52;60.19;49.83;74.69;;
66274;Laerm;58450;52.150;4.466;2023-08-08T13:32:20;61.47;51.67;78.51;;
66274;Laerm;58450;52.150;4.466;2023-08-08T13:34:47;60.80;49.15;82.01;;
66274;Laerm;58450;52.150;4.466;2023-08-08T13:37:15;61.33;49.45;77.65;;
66274;Laerm;58450;52.150;4.466;2023-08-08T13:39:43;59.48;48.50;73.77;;
66274;Laerm;58450;52.150;4.466;2023-08-08T13:42:12;60.47;51.45;75.98;;
66274;Laerm;58450;52.150;4.466;2023-08-08T13:44:40;60.31;52.33;75.54;;
66274;Laerm;58450;52.150;4.466;2023-08-08T13:47:07;55.51;49.41;66.82;;
66274;Laerm;58450;52.150;4.466;2023-08-08T13:49:35;58.79;51.37;72.02;;
66274;Laerm;58450;52.150;4.466;2023-08-08T13:52:03;58.62;48.31;75.52;;